Data for 07/04/2018

Time Sea-Level Adjusted Pressure Absolute Pressure Temperature Relative Humidity Dew Point   
(mb) (inHg) (mb) (inHg) (C) (F) (%) (C) (F)
00:05 1023 30.21 852 25.16 5.8 42.4 72 1.1 34
00:10 1023 30.21 852 25.16 5.9 42.7 70 0.9 33.7
00:15 1023 30.21 852 25.16 6 42.8 71 1.1 34
00:20 1023 30.21 852 25.16 5.9 42.6 72 1.1 34
00:25 1023 30.21 852 25.16 5.8 42.5 70 0.8 33.4
00:30 1023 30.21 852 25.16 5.9 42.7 71 1 33.8
00:35 1023 30.21 852 25.16 5.9 42.5 70 0.9 33.6
00:40 1023 30.21 852 25.16 5.6 42.1 71 0.9 33.6
00:45 1023 30.21 852 25.16 5.4 41.8 72 0.8 33.5
00:50 1023 30.21 852 25.16 5.2 41.4 73 0.7 33.3
00:55 1023 30.21 852 25.16 5.1 41.1 73 0.6 33.1
01:00 1023 30.21 852 25.16 5.1 41.1 72 0.5 32.9
01:05 1023 30.21 852 25.16 5.1 41.1 72 0.4 32.7
01:10 1023 30.21 852 25.16 5.3 41.5 70 0.3 32.5
01:15 1023 30.21 852 25.16 5.4 41.7 71 0.6 33
01:20 1023 30.21 852 25.16 5.3 41.5 71 0.5 32.8
01:25 1023 30.21 852 25.16 5.1 41.2 72 0.5 32.8
01:30 1023 30.21 852 25.16 4.9 40.8 73 0.4 32.7
01:35 1023 30.21 852 25.16 4.7 40.5 72 0.2 32.4
01:40 1023 30.21 852 25.16 4.7 40.5 72 0.1 32.2
01:45 1023 30.21 852 25.16 4.7 40.5 72 0.1 32.1
01:50 1023 30.21 852 25.16 4.9 40.8 70 -0.1 31.8
01:55 1023 30.21 852 25.16 5.1 41.1 69 -0.1 31.9
02:00 1023 30.21 852 25.16 5.1 41.2 69 -0.1 31.9
02:05 1023 30.21 852 25.16 5.1 41.2 70 0.1 32.1
02:10 1023 30.21 852 25.16 5.1 41.2 69 -0.1 31.7
02:15 1023 30.21 852 25.16 5.4 41.7 66 -0.4 31.3
02:20 1023 30.21 852 25.16 5.6 42 67 0 32
02:25 1023 30.21 852 25.16 5.3 41.6 70 0.3 32.5
02:30 1023 30.21 852 25.16 5.1 41.1 69 -0.2 31.7
02:35 1023 30.21 852 25.16 5.2 41.3 69 -0.1 31.8
02:40 1023 30.21 852 25.16 4.9 40.8 70 -0.1 31.8
02:45 1023 30.21 852 25.16 4.8 40.7 71 -0.1 31.9
02:50 1023 30.21 852 25.16 4.7 40.4 72 -0 31.9
02:55 1023 30.21 852 25.16 4.8 40.6 69 -0.3 31.4
03:00 1023 30.21 852 25.16 4.8 40.7 71 -0 32
03:05 1023 30.21 852 25.16 4.6 40.4 71 -0.2 31.7
03:10 1023 30.21 852 25.16 4.6 40.3 71 -0.2 31.6
03:15 1023 30.21 852 25.16 4.8 40.6 69 -0.4 31.2
03:20 1023 30.21 852 25.16 5 41 68 -0.3 31.4
03:25 1023 30.21 852 25.16 5 40.9 68 -0.4 31.3
03:30 1023 30.21 852 25.16 4.7 40.5 70 -0.3 31.5
03:35 1023 30.21 852 25.16 4.6 40.2 70 -0.4 31.2
03:40 1023 30.21 852 25.16 4.5 40.1 71 -0.4 31.3
03:45 1023 30.21 852 25.16 4.4 39.9 70 -0.5 31.1
03:50 1023 30.21 852 25.16 4.4 39.9 71 -0.4 31.3
03:55 1023 30.21 852 25.16 4.1 39.4 72 -0.4 31.2
04:00 1023 30.21 852 25.16 4.1 39.3 72 -0.6 30.9
04:05 1023 30.21 852 25.16 4.1 39.4 72 -0.4 31.3
04:10 1023 30.21 852 25.16 4.2 39.5 71 -0.5 31
04:15 1023 30.21 852 25.16 4.4 39.9 70 -0.6 30.9
04:20 1023 30.21 852 25.16 4.6 40.3 70 -0.4 31.2
04:25 1023 30.21 852 25.16 4.4 40 70 -0.6 30.9
04:30 1023 30.21 852 25.16 4.5 40.1 69 -0.7 30.8
04:35 1023 30.21 852 25.16 4.7 40.4 68 -0.7 30.8
04:40 1023 30.21 852 25.16 4.8 40.7 67 -0.8 30.6
04:45 1023 30.21 852 25.16 4.8 40.6 69 -0.4 31.3
04:50 1023 30.21 852 25.16 4.5 40 69 -0.7 30.8
04:55 1023 30.21 853 25.19 4.3 39.7 72 -0.4 31.4
05:00 1023 30.21 853 25.19 4 39.1 71 -0.8 30.6
05:05 1023 30.21 853 25.19 4.1 39.4 70 -0.8 30.5
05:10 1023 30.21 853 25.19 4.2 39.6 70 -0.8 30.6
05:15 1023 30.21 853 25.19 4.1 39.4 72 -0.6 31
05:20 1024 30.24 853 25.19 3.6 38.5 75 -0.4 31.2
05:25 1024 30.24 853 25.19 3.2 37.7 76 -0.7 30.7
05:30 1024 30.24 853 25.19 3.6 38.4 73 -0.9 30.4
05:35 1024 30.24 853 25.19 3.7 38.7 73 -0.6 30.9
05:40 1024 30.24 853 25.19 3.9 39 72 -0.6 30.9
05:45 1024 30.24 853 25.19 3.8 38.8 73 -0.6 30.8
05:50 1024 30.24 853 25.19 3.6 38.5 73 -0.8 30.6
05:55 1024 30.24 853 25.19 3.9 39.1 70 -1 30.1
06:00 1024 30.24 853 25.19 4.4 40 68 -0.9 30.3
06:05 1024 30.24 853 25.19 4.7 40.5 67 -0.8 30.5
06:10 1024 30.24 853 25.19 4.5 40.2 70 -0.5 31.1
06:15 1024 30.24 853 25.19 4.1 39.4 71 -0.7 30.8
06:20 1024 30.24 853 25.19 4 39.2 71 -0.9 30.5
06:25 1024 30.24 853 25.19 4.1 39.4 70 -0.9 30.3
06:30 1024 30.24 854 25.22 4.3 39.8 69 -0.8 30.5
06:35 1024 30.24 854 25.22 4.5 40.1 69 -0.7 30.7
06:40 1024 30.24 854 25.22 4.7 40.4 68 -0.6 30.9
06:45 1025 30.27 854 25.22 4.9 40.8 68 -0.6 30.9
06:50 1025 30.27 854 25.22 4.9 40.8 67 -0.6 30.8
06:55 1025 30.27 854 25.22 5 41 67 -0.5 31
07:00 1025 30.27 854 25.22 5.2 41.4 66 -0.5 31
07:05 1025 30.27 854 25.22 5.7 42.2 65 -0.4 31.2
07:10 1025 30.27 854 25.22 6 42.9 64 -0.3 31.5
07:15 1025 30.27 854 25.22 6.2 43.1 64 -0.1 31.8
07:20 1025 30.27 854 25.22 6.4 43.6 63 -0 31.9
07:25 1025 30.27 854 25.22 6.7 44.1 62 0.1 32.2
07:30 1025 30.27 854 25.22 6.9 44.4 63 0.4 32.8
07:35 1025 30.27 854 25.22 7.4 45.4 61 0.4 32.7
07:40 1025 30.27 854 25.22 7.7 45.8 60 0.3 32.6
07:45 1025 30.27 854 25.22 8.1 46.5 58 0.3 32.5
07:50 1025 30.27 854 25.22 8.5 47.2 57 0.5 32.9
07:55 1025 30.27 854 25.22 8.7 47.6 55 0.2 32.4
08:00 1025 30.27 854 25.22 9.7 49.4 52 0.4 32.7
08:05 1025 30.27 854 25.22 10.1 50.1 53 0.9 33.6
08:10 1025 30.27 854 25.22 10.1 50.1 54 1.2 34.1
08:15 1025 30.27 854 25.22 9.7 49.4 54 0.9 33.7
08:20 1025 30.27 854 25.22 9.3 48.7 55 0.8 33.5
08:25 1025 30.27 854 25.22 9.6 49.2 55 1 33.8
08:30 1025 30.27 855 25.25 9.7 49.5 55 1.1 33.9
08:35 1025 30.27 855 25.25 10 50 54 1.1 33.9
08:40 1025 30.27 855 25.25 10.1 50.1 53 1 33.7
08:45 1025 30.27 855 25.25 10.3 50.5 51 0.6 33.1
08:50 1026 30.3 855 25.25 11 51.8 50 0.9 33.7
08:55 1025 30.27 855 25.25 10.5 50.9 51 0.8 33.4
09:00 1025 30.27 855 25.25 11.3 52.3 49 1.1 34
09:05 1025 30.27 855 25.25 11.3 52.4 49 1.1 34
09:10 1026 30.3 855 25.25 11 51.7 50 1.1 34
09:15 1026 30.3 855 25.25 11 51.7 50 1 33.7
09:20 1025 30.27 855 25.25 11 51.7 49 0.7 33.3
09:25 1025 30.27 855 25.25 11 51.8 50 1 33.7
09:30 1025 30.27 855 25.25 11.2 52.2 49 0.9 33.7
09:35 1025 30.27 855 25.25 12 53.6 46 0.9 33.5
09:40 1025 30.27 855 25.25 12.3 54.2 47 1.3 34.4
09:45 1025 30.27 855 25.25 12.7 54.8 44 0.8 33.4
09:50 1025 30.27 855 25.25 13.3 55.9 42 0.8 33.5
09:55 1026 30.3 855 25.25 14 57.2 40 0.7 33.3
10:00 1026 30.3 855 25.25 13.2 55.8 41 0.5 32.8
10:05 1026 30.3 855 25.25 13.7 56.6 39 0.2 32.4
10:10 1026 30.3 855 25.25 14.3 57.8 39 0.7 33.3
10:15 1025 30.27 855 25.25 14.3 57.7 40 1 33.8
10:20 1025 30.27 855 25.25 13.4 56 40 0.2 32.4
10:25 1025 30.27 855 25.25 13.8 56.8 39 0.3 32.5
10:30 1025 30.27 855 25.25 14.5 58 37 0.1 32.1
10:35 1025 30.27 855 25.25 15.4 59.7 37 1 33.8
10:40 1025 30.27 855 25.25 14.4 57.8 39 0.6 33.1
10:45 1025 30.27 855 25.25 15 59.1 38 0.8 33.5
10:50 1025 30.27 855 25.25 15.3 59.6 39 1.6 34.9
10:55 1025 30.27 854 25.22 15.3 59.5 37 0.7 33.2
11:00 1025 30.27 855 25.25 15.3 59.5 40 2 35.5
11:05 1025 30.27 855 25.25 15.1 59.1 40 1.8 35.3
11:10 1025 30.27 855 25.25 16 60.9 38 1.9 35.4
11:15 1025 30.27 855 25.25 16.5 61.6 37 2 35.5
11:20 1025 30.27 855 25.25 16.4 61.6 38 2.1 35.8
11:25 1025 30.27 855 25.25 17.1 62.7 35 1.7 35
11:30 1025 30.27 854 25.22 17.5 63.4 36 2.2 36
11:35 1025 30.27 854 25.22 16.8 62.2 37 2.1 35.9
11:40 1025 30.27 854 25.22 16.1 60.9 41 2.8 37
11:45 1025 30.27 854 25.22 17 62.5 36 1.8 35.2
11:50 1025 30.27 854 25.22 17.5 63.5 36 2.5 36.5
11:55 1025 30.27 854 25.22 17.1 62.8 37 2.5 36.5
12:00 1025 30.27 854 25.22 18 64.4 36 2.6 36.8
12:05 1025 30.27 855 25.25 18.2 64.8 35 2.5 36.4
12:10 1025 30.27 854 25.22 17.4 63.3 38 2.9 37.2
12:15 1025 30.27 854 25.22 17.8 64 39 3.7 38.7
12:20 1025 30.27 854 25.22 17.4 63.3 39 3.3 38
12:25 1025 30.27 854 25.22 16.9 62.4 39 3 37.3
12:30 1025 30.27 854 25.22 17.4 63.3 40 3.6 38.5
12:35 1025 30.27 854 25.22 17.9 64.2 35 2.4 36.3
12:40 1025 30.27 854 25.22 18.5 65.3 35 3.1 37.5
12:45 1025 30.27 854 25.22 18.7 65.6 36 3.3 38
12:50 1025 30.27 854 25.22 17.9 64.2 38 3.6 38.6
12:55 1025 30.27 854 25.22 18 64.5 36 3 37.4
13:00 1025 30.27 854 25.22 18.6 65.5 34 2.5 36.4
13:05 1025 30.27 854 25.22 19.3 66.7 35 3.4 38.1
13:10 1025 30.27 854 25.22 19.2 66.5 33 2.8 37.1
13:15 1025 30.27 854 25.22 18.3 65 38 4 39.2
13:20 1025 30.27 854 25.22 17 62.6 40 3.5 38.4
13:25 1025 30.27 854 25.22 17.7 63.8 39 3.7 38.6
13:30 1025 30.27 854 25.22 18.7 65.7 35 3.1 37.6
13:35 1025 30.27 854 25.22 18.6 65.5 36 3.3 37.9
13:40 1025 30.27 854 25.22 19.4 66.9 33 3 37.4
13:45 1025 30.27 854 25.22 19.7 67.5 33 3 37.5
13:50 1025 30.27 854 25.22 20 68 32 2.9 37.2
13:55 1025 30.27 854 25.22 20.3 68.5 32 3.4 38.1
14:00 1025 30.27 854 25.22 20.5 68.9 31 3 37.5
14:05 1025 30.27 854 25.22 20.4 68.8 34 4 39.2
14:10 1025 30.27 854 25.22 19.2 66.6 35 3.6 38.5
14:15 1025 30.27 854 25.22 19.8 67.7 33 3.3 38
14:20 1025 30.27 854 25.22 20.8 69.5 32 3.8 38.9
14:25 1025 30.27 854 25.22 20.9 69.7 33 4.2 39.6
14:30 1025 30.27 854 25.22 20.7 69.2 33 3.8 38.9
14:35 1025 30.27 854 25.22 21.1 70 32 4 39.2
14:40 1025 30.27 854 25.22 21.2 70.2 33 4.6 40.4
14:45 1025 30.27 854 25.22 21.6 70.9 33 4.8 40.6
14:50 1025 30.27 854 25.22 21.2 70.1 34 4.8 40.7
14:55 1025 30.27 854 25.22 20.3 68.5 34 4.2 39.5
15:00 1025 30.27 854 25.22 20.4 68.8 34 4.4 40
15:05 1025 30.27 854 25.22 22.2 72 30 4 39.3
15:10 1025 30.27 854 25.22 22.2 71.9 32 4.7 40.4
15:15 1025 30.27 854 25.22 22.3 72.1 30 4.3 39.7
15:20 1025 30.27 854 25.22 22.3 72.1 31 4.8 40.6
15:25 1025 30.27 854 25.22 22.3 72.1 31 4.7 40.4
15:30 1025 30.27 854 25.22 21.5 70.7 34 5.1 41.2
15:35 1025 30.27 854 25.22 21.8 71.2 32 4.8 40.6
15:40 1025 30.27 854 25.22 22.6 72.6 32 5.1 41.3
15:45 1025 30.27 854 25.22 22.7 72.8 33 5.6 42.1
15:50 1025 30.27 855 25.25 22.7 72.9 30 4.7 40.5
15:55 1025 30.27 855 25.25 23.1 73.6 31 5.2 41.4
16:00 1025 30.27 855 25.25 23.3 74 33 6.1 43.1
16:05 1025 30.27 854 25.22 22.9 73.2 31 5.1 41.2
16:10 1025 30.27 854 25.22 22.3 72.2 32 5.2 41.3
16:15 1025 30.27 854 25.22 22.5 72.5 31 4.9 40.8
16:20 1025 30.27 854 25.22 22.6 72.8 28 3.6 38.6
16:25 1025 30.27 854 25.22 22.1 71.7 29 3.6 38.6
16:30 1025 30.27 854 25.22 21.9 71.4 30 3.9 39.1
16:35 1025 30.27 854 25.22 21.4 70.5 31 3.9 39
16:40 1025 30.27 854 25.22 21.4 70.5 31 3.6 38.6
16:45 1025 30.27 854 25.22 21.2 70.1 31 3.6 38.5
16:50 1025 30.27 854 25.22 21.7 71 31 4.1 39.4
16:55 1025 30.27 854 25.22 21.8 71.2 30 3.6 38.5
17:00 1025 30.27 854 25.22 21.9 71.4 30 3.5 38.3
17:05 1025 30.27 854 25.22 21.9 71.4 31 4.3 39.7
17:10 1025 30.27 854 25.22 21.9 71.4 30 3.8 38.9
17:15 1025 30.27 854 25.22 21.8 71.2 31 3.9 39
17:20 1025 30.27 854 25.22 21.7 71 30 3.5 38.3
17:25 1025 30.27 854 25.22 21.6 70.9 28 2.7 36.8
17:30 1025 30.27 854 25.22 21.8 71.3 28 2.7 36.9
17:35 1025 30.27 854 25.22 21.9 71.4 27 2.2 36
17:40 1025 30.27 854 25.22 21.5 70.7 28 2.4 36.3
17:45 1025 30.27 854 25.22 21.5 70.7 27 1.9 35.5
17:50 1025 30.27 854 25.22 21.4 70.6 27 1.9 35.5
17:55 1025 30.27 854 25.22 21.7 71 27 1.9 35.5
18:00 1025 30.27 854 25.22 21.3 70.4 29 2.6 36.8
18:05 1025 30.27 854 25.22 21.1 70 29 2.7 36.8
18:10 1025 30.27 854 25.22 21.1 70 30 2.9 37.1
18:15 1025 30.27 854 25.22 21.1 69.9 29 2.6 36.7
18:20 1025 30.27 854 25.22 20.9 69.7 29 2.5 36.5
18:25 1025 30.27 854 25.22 20.9 69.7 29 2.4 36.4
18:30 1025 30.27 854 25.22 21 69.7 30 3 37.3
18:35 1025 30.27 854 25.22 20.8 69.4 30 3 37.4
18:40 1025 30.27 854 25.22 20.7 69.2 30 2.8 37.1
18:45 1025 30.27 854 25.22 20.6 69 31 3.1 37.6
18:50 1025 30.27 854 25.22 20.5 69 32 3.2 37.8
18:55 1025 30.27 854 25.22 20.4 68.7 32 3.5 38.4
19:00 1025 30.27 855 25.25 20.3 68.6 32 3.5 38.3
19:05 1025 30.27 855 25.25 20.4 68.8 32 3.4 38.1
19:10 1025 30.27 855 25.25 20.2 68.4 33 3.5 38.2
19:15 1025 30.27 855 25.25 20 68.1 33 3.5 38.4
19:20 1025 30.27 855 25.25 19.9 67.8 33 3.3 37.9
19:25 1025 30.27 855 25.25 19.8 67.6 33 3.4 38.1
19:30 1026 30.3 855 25.25 19.7 67.5 34 3.6 38.5
19:35 1026 30.3 855 25.25 19.6 67.2 37 4.4 40
19:40 1026 30.3 855 25.25 19.5 67.1 37 4.6 40.3
19:45 1026 30.3 855 25.25 19.4 66.9 36 4.3 39.7
19:50 1026 30.3 855 25.25 19.4 66.8 36 4.2 39.5
19:55 1026 30.3 855 25.25 19.3 66.7 37 4.4 39.9
20:00 1026 30.3 855 25.25 19.2 66.5 37 4.3 39.7
20:05 1026 30.3 855 25.25 19.1 66.4 37 4.2 39.6
20:10 1026 30.3 855 25.25 19 66.1 37 4.1 39.4
20:15 1026 30.3 855 25.25 18.9 66 38 4.5 40.1
20:20 1026 30.3 855 25.25 18.8 65.8 39 4.6 40.3
20:25 1026 30.3 855 25.25 18.7 65.6 39 4.5 40.1
20:30 1026 30.3 856 25.28 18.6 65.4 40 4.7 40.4
20:35 1026 30.3 856 25.28 18.5 65.2 40 4.8 40.7
20:40 1026 30.3 856 25.28 18.3 65 40 4.7 40.5
20:45 1027 30.33 856 25.28 18.2 64.8 41 5 40.9
20:50 1027 30.33 856 25.28 18.1 64.5 42 4.9 40.9
20:55 1027 30.33 856 25.28 17.9 64.3 42 4.8 40.6
21:00 1027 30.33 856 25.28 17.9 64.2 41 4.6 40.3
21:05 1027 30.33 856 25.28 17.9 64.3 42 4.8 40.7
21:10 1027 30.33 856 25.28 17.7 63.9 43 5.1 41.2
21:15 1027 30.33 856 25.28 17.6 63.6 43 5 41
21:20 1027 30.33 856 25.28 17.5 63.4 44 5.1 41.2
21:25 1027 30.33 856 25.28 17.4 63.2 44 5.1 41.1
21:30 1027 30.33 856 25.28 17.2 63 44 5 41
21:35 1027 30.33 856 25.28 17.2 62.9 44 5 41
21:40 1027 30.33 856 25.28 17.1 62.7 44 4.9 40.9
21:45 1027 30.33 856 25.28 17 62.6 45 5 41
21:50 1027 30.33 856 25.28 16.9 62.4 45 5 40.9
21:55 1027 30.33 856 25.28 16.8 62.3 45 5 41.1
22:00 1027 30.33 856 25.28 16.8 62.2 46 5.1 41.1
22:05 1027 30.33 856 25.28 16.7 62.1 45 4.9 40.9
22:10 1027 30.33 857 25.31 16.7 62 46 5 40.9
22:15 1027 30.33 857 25.31 16.5 61.8 46 5 41
22:20 1028 30.36 857 25.31 16.5 61.6 46 4.8 40.7
22:25 1028 30.36 857 25.31 16.4 61.6 46 4.8 40.6
22:30 1028 30.36 857 25.31 16.3 61.4 46 4.8 40.6
22:35 1028 30.36 857 25.31 16.2 61.2 45 4.5 40.2
22:40 1028 30.36 857 25.31 16.2 61.2 46 4.7 40.4
22:45 1028 30.36 857 25.31 16.1 61 46 4.5 40.1
22:50 1028 30.36 857 25.31 16.1 60.9 45 4.3 39.8
22:55 1028 30.36 857 25.31 16 60.9 44 4 39.1
23:00 1028 30.36 857 25.31 16 60.8 44 3.9 39
23:05 1028 30.36 857 25.31 15.9 60.7 44 3.7 38.7
23:10 1028 30.36 857 25.31 15.9 60.7 44 3.7 38.7
23:15 1028 30.36 857 25.31 15.9 60.5 43 3.6 38.4
23:20 1028 30.36 857 25.31 15.9 60.6 44 3.6 38.5
23:25 1028 30.36 857 25.31 15.8 60.5 44 3.7 38.6
23:30 1028 30.36 857 25.31 15.8 60.4 44 3.8 38.8
23:35 1027 30.33 857 25.31 15.7 60.3 45 3.8 38.9
23:40 1028 30.36 857 25.31 15.7 60.3 45 3.9 38.9
23:45 1028 30.36 857 25.31 15.7 60.2 45 4 39.2
23:50 1028 30.36 857 25.31 15.6 60 46 4.1 39.4
23:55 1028 30.36 857 25.31 15.5 60 46 4.1 39.3
24:00 1028 30.36 857 25.31 15.5 59.9 46 4.1 39.4